Hattiesburg, MS

7:17 AM CST on March 01, 2015 (GMT -0600)
University Heights | Change Station
CLOSE
Current Station
Personal Weather Station
Location: Hattiesburg, MS
Elevation: 246 ft
Nearby Weather Stations

Elev 246 ft 31.31 °N, 89.34 °W | Updated 2 minutes ago

Overcast
Overcast
52.7 °F
Feels Like 52.7 °F
N
1.2
Wind Variable Wind from ENE
Gusts 2.2 mph

Today
High -- | Low -- °F
--% Chance of Precip.
Yesterday
High -- | Low -- °F
Precip. -- in
6:24 AM 5:55 PM
Waxing Gibbous, 85% visible
Pressure 30.35 in
Visibility 3.0 miles
Clouds Overcast 500 ft
Dew Point 51 °F
Humidity 95%
Rainfall 0.00 in
Snow Depth Not available.
UV 0 out of 12
Pollen 8.90 out of 12
Air Quality Not available.
Flu Activity Not available.
METAR KHBG 011253Z AUTO 12005KT 3SM BR OVC005 12/11 A3036 RMK AO2 SLP278 T01170106

More Conditions Fewer Conditions

Pressure 30.35 in
Visibility 3.0 miles
Clouds Overcast 500 ft
Dew Point 51 °F
Humidity 95%
Rainfall 0.00 in
Snow Depth Not available.
UV 0 out of 12
Pollen 8.90 out of 12
Air Quality Not available.
Flu Activity Not available.
METAR KHBG 011253Z AUTO 12005KT 3SM BR OVC005 12/11 A3036 RMK AO2 SLP278 T01170106

More Conditions Fewer Conditions

10-Day Weather Forecast

Almanac

Astronomy

Mar. 01, 2015 Rise Set
Actual Time
Civil Twilight
Nautical Twilight
Astronomical Twilight
Moon
Length of Visible Light
Length of Day
Tomorrow will be .
, % of the Moon is Illuminated

Today's Extremes

State Highs State Lows

Community

WunderPhotos

Upload Photos

1,801,374 photos uploaded!

WunderBlogs® & News

Nearby

Air Quality

  Air Quality AQ Index Pollutant
Not available.

Snow Depth

Station Depth Elevation

Earthquake Activity

City Distance Mag. Time & Date
Minimum magnitude displayed is 2.5.

Coastal Water Temperatures

Place Temperature

Nearby Weather Stations